createdAt,value
2023-05-05T00:02:28.549Z,15.21
2023-05-05T00:04:59.664Z,15.18
2023-05-05T00:07:30.547Z,15.15
2023-05-05T00:10:01.325Z,15.15
2023-05-05T00:12:32.351Z,15.17
2023-05-05T00:15:03.293Z,15.20
2023-05-05T00:17:34.455Z,15.24
2023-05-05T00:20:05.940Z,15.26
2023-05-05T00:22:37.210Z,15.25
2023-05-05T00:25:09.300Z,15.21
2023-05-05T00:27:41.025Z,15.16
2023-05-05T00:30:13.754Z,15.14
2023-05-05T00:32:45.016Z,15.11
2023-05-05T00:35:16.195Z,15.10
2023-05-05T00:37:47.221Z,15.12
2023-05-05T00:40:18.773Z,15.15
2023-05-05T00:42:51.034Z,15.13
2023-05-05T00:45:22.386Z,15.04
2023-05-05T00:47:54.076Z,15.02
2023-05-05T00:50:25.491Z,15.03
2023-05-05T00:52:58.322Z,15.03
2023-05-05T00:55:29.704Z,15.04
2023-05-05T00:58:00.955Z,15.05
2023-05-05T01:00:32.101Z,15.02
2023-05-05T01:03:03.422Z,14.99
2023-05-05T01:05:36.773Z,14.97
2023-05-05T01:08:14.293Z,14.94
2023-05-05T01:10:46.668Z,14.95
2023-05-05T01:13:21.452Z,14.98
2023-05-05T01:15:54.632Z,15.01
2023-05-05T01:18:28.602Z,15.03
2023-05-05T01:21:01.646Z,15.04
2023-05-05T01:23:39.045Z,15.07
2023-05-05T01:26:23.490Z,15.07
2023-05-05T01:29:01.069Z,15.07
2023-05-05T01:31:52.028Z,15.10
2023-05-05T01:34:26.059Z,15.14
2023-05-05T01:36:58.945Z,15.14
2023-05-05T01:39:31.164Z,15.14
2023-05-05T01:42:04.951Z,15.15
2023-05-05T01:44:37.152Z,15.15
2023-05-05T01:47:08.480Z,15.15
2023-05-05T01:49:40.102Z,15.17
2023-05-05T01:52:11.767Z,15.20
2023-05-05T01:54:44.129Z,15.23
2023-05-05T01:57:15.380Z,15.24
2023-05-05T01:59:47.108Z,15.24
2023-05-05T02:02:18.555Z,15.24
2023-05-05T02:04:50.103Z,15.24
2023-05-05T02:07:22.003Z,15.26
2023-05-05T02:09:54.159Z,15.26
2023-05-05T02:12:25.768Z,15.25
2023-05-05T02:14:58.613Z,15.26
2023-05-05T02:17:30.454Z,15.26
2023-05-05T02:20:03.123Z,15.26
2023-05-05T02:29:32.852Z,15.27
2023-05-05T02:32:04.443Z,15.27
2023-05-05T02:34:36.065Z,15.26
2023-05-05T02:37:08.369Z,15.25
2023-05-05T02:39:39.902Z,15.23
2023-05-05T02:42:11.119Z,15.21
2023-05-05T02:44:41.945Z,15.17
2023-05-05T02:47:12.437Z,15.09
2023-05-05T02:49:43.144Z,15.06
2023-05-05T02:52:14.566Z,15.02
2023-05-05T02:54:45.343Z,14.98
2023-05-05T02:57:16.049Z,14.95
2023-05-05T02:59:49.661Z,14.92
2023-05-05T03:02:21.962Z,14.86
2023-05-05T03:04:54.056Z,14.79
2023-05-05T03:07:25.186Z,14.69
2023-05-05T03:09:59.299Z,14.63
2023-05-05T03:12:32.257Z,14.64
2023-05-05T03:15:03.037Z,14.64
2023-05-05T03:17:34.259Z,14.64
2023-05-05T03:20:22.727Z,14.67
2023-05-05T03:22:53.644Z,14.68
2023-05-05T03:25:24.873Z,14.71
2023-05-05T03:27:55.720Z,14.73
2023-05-05T03:30:26.562Z,14.75
2023-05-05T03:32:57.465Z,14.77
2023-05-05T03:35:28.456Z,14.81
2023-05-05T03:37:59.309Z,14.86
2023-05-05T03:43:41.493Z,14.97
2023-05-05T03:46:12.379Z,14.99
2023-05-05T03:48:43.523Z,14.98
2023-05-05T03:51:14.962Z,14.98
2023-05-05T03:53:45.691Z,15.00
2023-05-05T03:56:16.417Z,14.98
2023-05-05T03:58:47.288Z,14.98
2023-05-05T04:01:18.078Z,14.98
2023-05-05T04:03:49.760Z,14.97
2023-05-05T04:06:23.531Z,14.96
2023-05-05T04:08:54.194Z,14.94
2023-05-05T04:11:24.819Z,14.95
2023-05-05T04:13:59.566Z,14.92
2023-05-05T04:16:52.175Z,14.87
2023-05-05T04:19:29.934Z,14.82
2023-05-05T04:22:00.596Z,14.80
2023-05-05T04:24:31.436Z,14.78
2023-05-05T04:27:02.409Z,14.76
2023-05-05T04:29:33.227Z,14.76
2023-05-05T04:32:03.914Z,14.74
2023-05-05T04:34:34.716Z,14.70
2023-05-05T04:37:05.410Z,14.67
2023-05-05T04:39:36.524Z,14.67
2023-05-05T04:42:07.422Z,14.68
2023-05-05T04:44:38.241Z,14.66
2023-05-05T04:47:08.945Z,14.65
2023-05-05T04:49:39.870Z,14.67
2023-05-05T04:52:11.081Z,14.63
2023-05-05T04:54:41.834Z,14.64
2023-05-05T04:57:12.492Z,14.65
2023-05-05T04:59:43.044Z,14.66
2023-05-05T05:02:14.070Z,14.66
2023-05-05T05:04:44.872Z,14.66
2023-05-05T05:07:15.696Z,14.69
2023-05-05T05:09:46.382Z,14.72
2023-05-05T05:12:17.076Z,14.75
2023-05-05T05:14:47.794Z,14.76
2023-05-05T05:17:18.473Z,14.82
2023-05-05T05:19:49.271Z,14.88
2023-05-05T05:22:20.102Z,14.94
2023-05-05T05:24:50.902Z,15.00
2023-05-05T05:27:21.674Z,15.02
2023-05-05T05:29:52.531Z,15.03
2023-05-05T05:32:25.043Z,15.03
2023-05-05T05:34:55.885Z,15.03
2023-05-05T05:37:31.705Z,15.04
2023-05-05T05:40:02.668Z,15.03
2023-05-05T05:42:33.412Z,14.97
2023-05-05T05:45:07.273Z,14.96
2023-05-05T05:47:41.973Z,14.97
2023-05-05T05:50:13.258Z,14.98
2023-05-05T05:52:45.174Z,14.97
2023-05-05T05:55:15.984Z,14.99
2023-05-05T05:57:46.742Z,15.03
2023-05-05T06:00:17.842Z,15.05
2023-05-05T06:02:52.772Z,15.03
2023-05-05T06:05:25.843Z,15.02
2023-05-05T06:08:01.464Z,15.07
2023-05-05T06:10:36.021Z,15.15
2023-05-05T06:13:07.024Z,15.23
2023-05-05T06:15:42.720Z,15.25
2023-05-05T06:18:13.701Z,15.24
2023-05-05T06:20:44.931Z,15.26
2023-05-05T06:23:15.612Z,15.37
2023-05-05T06:25:48.326Z,15.47
2023-05-05T06:28:25.479Z,15.52
2023-05-05T06:30:59.873Z,15.54
2023-05-05T06:33:33.083Z,15.58
2023-05-05T06:36:07.136Z,15.63
2023-05-05T06:38:38.061Z,15.69
2023-05-05T06:41:13.276Z,15.74
2023-05-05T06:43:46.414Z,15.78
2023-05-05T06:46:17.001Z,15.83
2023-05-05T06:48:48.007Z,15.85
2023-05-05T06:51:18.793Z,15.86
2023-05-05T06:53:49.487Z,15.89
2023-05-05T06:56:20.093Z,15.95
2023-05-05T06:58:50.798Z,16.05
2023-05-05T07:01:21.348Z,16.18
2023-05-05T07:03:52.373Z,16.32
2023-05-05T07:06:24.237Z,16.40
2023-05-05T07:08:54.868Z,16.49
2023-05-05T07:11:27.898Z,16.59
2023-05-05T07:14:12.823Z,16.77
2023-05-05T07:16:49.084Z,16.90
2023-05-05T07:19:19.770Z,17.04
2023-05-05T07:21:50.526Z,17.23
2023-05-05T07:24:21.222Z,17.40
2023-05-05T07:26:52.063Z,17.54
2023-05-05T07:29:22.830Z,17.58
2023-05-05T07:31:53.713Z,17.65
2023-05-05T07:34:24.316Z,17.77
2023-05-05T07:36:57.671Z,17.87
2023-05-05T07:39:28.392Z,17.86
2023-05-05T07:41:59.137Z,17.84
2023-05-05T07:44:29.765Z,17.87
2023-05-05T07:47:03.056Z,17.88
2023-05-05T07:49:36.767Z,17.87
2023-05-05T07:52:10.425Z,17.90
2023-05-05T07:54:42.447Z,17.85
2023-05-05T07:57:13.078Z,17.78
2023-05-05T07:59:44.867Z,17.80
2023-05-05T08:02:15.818Z,17.85
2023-05-05T08:04:48.698Z,17.88
2023-05-05T08:07:19.515Z,17.94
2023-05-05T08:09:50.243Z,17.98
2023-05-05T08:12:25.426Z,18.01
2023-05-05T08:14:56.163Z,18.16
2023-05-05T08:17:27.226Z,18.40
2023-05-05T08:19:58.198Z,18.57
2023-05-05T08:22:28.866Z,18.70
2023-05-05T08:24:59.491Z,18.81
2023-05-05T08:27:30.013Z,18.85
2023-05-05T08:30:00.807Z,18.92
2023-05-05T08:32:35.564Z,19.10
2023-05-05T08:35:07.021Z,19.35
2023-05-05T08:37:38.166Z,19.65
2023-05-05T08:40:11.243Z,19.90
2023-05-05T08:42:42.292Z,20.23
2023-05-05T08:45:13.133Z,20.54
2023-05-05T08:47:44.552Z,20.55
2023-05-05T08:50:17.622Z,20.61
2023-05-05T08:52:49.812Z,20.64
2023-05-05T08:55:24.171Z,20.70
2023-05-05T08:57:56.517Z,20.85
2023-05-05T09:00:27.637Z,20.83
2023-05-05T09:02:59.588Z,20.72
2023-05-05T09:05:30.450Z,20.76
2023-05-05T09:08:01.884Z,20.99
2023-05-05T09:10:32.509Z,21.29
2023-05-05T09:13:03.227Z,21.73
2023-05-05T09:15:34.008Z,22.15
2023-05-05T09:18:06.232Z,22.34
2023-05-05T09:20:37.709Z,22.19
2023-05-05T09:23:14.310Z,21.99
2023-05-05T09:25:47.422Z,21.78
2023-05-05T09:28:19.461Z,21.70
2023-05-05T09:30:50.076Z,21.58
2023-05-05T09:33:29.932Z,21.42
2023-05-05T09:36:00.529Z,21.25
2023-05-05T09:38:31.242Z,21.22
2023-05-05T09:41:05.473Z,21.30
2023-05-05T09:43:50.120Z,21.31
2023-05-05T09:46:20.816Z,21.15
2023-05-05T09:48:51.497Z,21.09
2023-05-05T09:51:24.106Z,21.08
2023-05-05T09:53:54.811Z,21.15
2023-05-05T09:56:25.740Z,21.10
2023-05-05T09:58:57.590Z,21.06
2023-05-05T10:01:29.330Z,21.10
2023-05-05T10:04:00.194Z,21.14
2023-05-05T10:06:42.432Z,21.18
2023-05-05T10:09:13.010Z,21.20
2023-05-05T10:11:47.545Z,21.09
2023-05-05T10:14:19.992Z,20.98
2023-05-05T10:16:51.302Z,21.05
2023-05-05T10:19:25.182Z,21.03
2023-05-05T10:21:57.682Z,20.94
2023-05-05T10:24:32.232Z,20.85
2023-05-05T10:27:06.206Z,20.64
2023-05-05T10:29:41.681Z,20.51
2023-05-05T10:32:40.637Z,20.40
2023-05-05T10:35:05.374Z,20.40
2023-05-05T10:37:36.783Z,20.42
2023-05-05T10:40:08.907Z,20.41
2023-05-05T10:42:41.647Z,20.38
2023-05-05T10:45:13.875Z,20.35
2023-05-05T10:47:46.475Z,20.25
2023-05-05T10:50:19.327Z,20.17
2023-05-05T10:53:00.138Z,20.18
2023-05-05T10:55:31.779Z,20.22
2023-05-05T10:58:02.375Z,20.26
2023-05-05T11:00:52.483Z,20.29
2023-05-05T11:03:23.847Z,20.32
2023-05-05T11:06:15.994Z,20.32
2023-05-05T11:08:46.670Z,20.31
2023-05-05T11:11:17.945Z,20.28
2023-05-05T11:13:48.611Z,20.33
2023-05-05T11:16:51.147Z,20.37
2023-05-05T11:19:38.694Z,20.39
2023-05-05T11:22:09.384Z,20.43
2023-05-05T11:24:40.730Z,20.55
2023-05-05T11:27:11.659Z,20.72
2023-05-05T11:29:59.339Z,20.82
2023-05-05T11:32:29.894Z,20.89
2023-05-05T11:35:00.724Z,20.88
2023-05-05T11:37:31.435Z,20.82
2023-05-05T11:40:17.900Z,20.81
2023-05-05T11:42:48.473Z,20.80
2023-05-05T11:45:23.761Z,20.82
2023-05-05T11:47:55.020Z,20.80
2023-05-05T11:50:26.084Z,20.80
2023-05-05T11:52:56.740Z,20.82
2023-05-05T11:55:27.679Z,20.85
2023-05-05T11:57:58.523Z,20.94
2023-05-05T12:00:38.231Z,21.04
2023-05-05T12:03:08.970Z,21.16
2023-05-05T12:05:39.702Z,21.44
2023-05-05T12:08:10.536Z,21.82
2023-05-05T12:10:42.274Z,22.14
2023-05-05T12:13:20.585Z,22.46
2023-05-05T12:15:51.337Z,22.85
2023-05-05T12:18:24.695Z,23.23
2023-05-05T12:20:55.342Z,23.58
2023-05-05T12:23:30.881Z,23.93
2023-05-05T12:26:02.848Z,24.21
2023-05-05T12:28:45.147Z,24.12
2023-05-05T12:31:16.198Z,23.81
2023-05-05T12:33:47.083Z,23.57
2023-05-05T12:36:17.706Z,23.39
2023-05-05T12:38:48.305Z,23.22
2023-05-05T12:41:21.276Z,22.81
2023-05-05T12:43:57.567Z,22.49
2023-05-05T12:46:29.757Z,22.28
2023-05-05T12:49:05.192Z,22.15
2023-05-05T12:51:36.042Z,22.09
2023-05-05T12:54:07.812Z,22.27
2023-05-05T12:56:39.012Z,22.76
2023-05-05T12:59:10.165Z,23.18
2023-05-05T13:01:49.310Z,23.23
2023-05-05T13:04:20.300Z,23.10
2023-05-05T13:06:54.035Z,22.90
2023-05-05T13:09:25.340Z,22.60
2023-05-05T13:11:55.974Z,22.29
2023-05-05T13:14:26.554Z,22.08
2023-05-05T13:16:57.414Z,21.93
2023-05-05T13:19:28.348Z,21.80
2023-05-05T13:21:59.372Z,21.76
2023-05-05T13:24:46.362Z,21.64
2023-05-05T13:27:22.043Z,21.60
2023-05-05T13:29:53.735Z,21.58
2023-05-05T13:32:25.186Z,21.59
2023-05-05T13:34:56.762Z,21.57
2023-05-05T13:37:28.465Z,21.49
2023-05-05T13:40:00.828Z,21.46
2023-05-05T13:42:32.869Z,21.37
2023-05-05T13:45:04.821Z,21.28
2023-05-05T13:47:36.144Z,21.23
2023-05-05T13:50:08.748Z,21.15
2023-05-05T13:57:48.669Z,20.94
2023-05-05T14:00:31.520Z,20.87
2023-05-05T14:03:02.429Z,20.69
2023-05-05T14:05:34.136Z,20.46
2023-05-05T14:08:04.818Z,20.32
2023-05-05T14:10:35.611Z,20.07
2023-05-05T14:13:06.407Z,19.86
2023-05-05T14:15:37.162Z,19.69
2023-05-05T14:18:08.124Z,19.55
2023-05-05T14:20:39.090Z,19.54
2023-05-05T14:23:09.666Z,19.53
2023-05-05T14:25:40.442Z,19.41
2023-05-05T14:28:11.161Z,19.30
2023-05-05T14:30:42.122Z,19.25
2023-05-05T14:33:14.803Z,19.19
2023-05-05T14:35:45.532Z,19.10
2023-05-05T14:38:16.230Z,19.07
2023-05-05T14:40:46.922Z,19.06
2023-05-05T14:43:17.630Z,19.08
2023-05-05T14:45:48.358Z,19.11
2023-05-05T14:48:21.886Z,19.14
2023-05-05T14:50:52.781Z,19.13
2023-05-05T14:53:23.557Z,19.16
2023-05-05T14:55:54.310Z,19.19
2023-05-05T14:58:25.088Z,19.22
2023-05-05T15:00:55.906Z,19.29
2023-05-05T15:03:26.611Z,19.34
2023-05-05T15:05:57.409Z,19.33
2023-05-05T15:08:28.127Z,19.34
2023-05-05T15:10:58.736Z,19.33
2023-05-05T15:13:30.074Z,19.33
2023-05-05T15:16:00.973Z,19.33
2023-05-05T15:18:31.865Z,19.29
2023-05-05T15:21:02.672Z,19.24
2023-05-05T15:23:33.356Z,19.22
2023-05-05T15:26:04.452Z,19.18
2023-05-05T15:28:35.277Z,19.15
2023-05-05T15:31:06.414Z,19.12
2023-05-05T15:33:37.135Z,19.09
2023-05-05T15:36:08.433Z,19.12
2023-05-05T15:38:42.559Z,19.19
2023-05-05T15:41:13.340Z,19.25
2023-05-05T15:43:44.064Z,19.25
2023-05-05T15:46:14.888Z,19.24
2023-05-05T15:48:45.481Z,19.25
2023-05-05T15:51:16.375Z,19.33
2023-05-05T15:53:47.286Z,19.36
2023-05-05T15:56:18.020Z,19.38
2023-05-05T15:58:48.863Z,19.42
2023-05-05T16:01:19.712Z,19.52
2023-05-05T16:03:50.442Z,19.54
2023-05-05T16:06:22.135Z,19.58
2023-05-05T16:08:52.917Z,19.62
2023-05-05T16:11:23.896Z,19.68
2023-05-05T16:13:54.825Z,19.73
2023-05-05T16:16:25.697Z,19.76
2023-05-05T16:18:56.464Z,19.79
2023-05-05T16:21:27.573Z,19.80
2023-05-05T16:23:58.333Z,19.78
2023-05-05T16:26:28.972Z,19.74
2023-05-05T16:28:59.770Z,19.71
2023-05-05T16:31:30.691Z,19.71
2023-05-05T16:34:02.705Z,19.71
2023-05-05T16:36:33.474Z,19.74
2023-05-05T16:39:05.566Z,19.76
2023-05-05T16:41:44.977Z,19.77
2023-05-05T16:44:18.367Z,19.77
2023-05-05T16:46:49.144Z,19.72
2023-05-05T16:49:21.909Z,19.68
2023-05-05T16:51:53.623Z,19.60
2023-05-05T16:54:28.202Z,19.52
2023-05-05T16:57:02.440Z,19.49
2023-05-05T16:59:36.222Z,19.46
2023-05-05T17:02:07.338Z,19.41
2023-05-05T17:04:38.199Z,19.40
2023-05-05T17:07:08.901Z,19.40
2023-05-05T17:09:46.817Z,19.39
2023-05-05T17:12:17.836Z,19.37
2023-05-05T17:14:48.565Z,19.36
2023-05-05T17:17:19.308Z,19.36
2023-05-05T17:19:50.222Z,19.36
2023-05-05T17:22:21.056Z,19.35
2023-05-05T17:24:52.107Z,19.34
2023-05-05T17:27:22.925Z,19.31
2023-05-05T17:29:54.728Z,19.30
2023-05-05T17:32:25.503Z,19.30
2023-05-05T17:34:58.268Z,19.30
2023-05-05T17:37:29.361Z,19.30
2023-05-05T17:40:00.188Z,19.27
2023-05-05T17:42:33.169Z,19.25
2023-05-05T17:45:04.020Z,19.25
2023-05-05T17:47:34.722Z,19.25
2023-05-05T17:50:05.763Z,19.25
2023-05-05T17:52:36.680Z,19.25
2023-05-05T17:55:08.275Z,19.24
2023-05-05T17:57:39.315Z,19.22
2023-05-05T18:00:10.991Z,19.21
2023-05-05T18:02:41.993Z,19.20
2023-05-05T18:05:13.481Z,19.19
2023-05-05T18:07:44.258Z,19.16
2023-05-05T18:10:15.018Z,19.16
2023-05-05T18:12:45.984Z,19.12
2023-05-05T18:15:16.697Z,19.08
2023-05-05T18:17:47.388Z,19.05
2023-05-05T18:20:20.938Z,19.03
2023-05-05T18:22:53.868Z,19.01
2023-05-05T18:25:27.474Z,19.00
2023-05-05T18:27:58.795Z,18.99
2023-05-05T18:30:29.764Z,18.98
2023-05-05T18:33:00.676Z,18.98
2023-05-05T18:35:31.940Z,18.97
2023-05-05T18:38:03.493Z,18.98
2023-05-05T18:40:34.376Z,18.98
2023-05-05T18:43:05.108Z,18.96
2023-05-05T18:45:35.875Z,18.95
2023-05-05T18:48:07.119Z,18.96
2023-05-05T18:50:39.102Z,18.95
2023-05-05T18:53:10.859Z,18.94
2023-05-05T18:55:43.139Z,18.91
2023-05-05T18:58:13.879Z,18.89
2023-05-05T19:00:44.573Z,18.87
2023-05-05T19:03:15.522Z,18.86
2023-05-05T19:05:46.393Z,18.83
2023-05-05T19:08:19.644Z,18.78
2023-05-05T19:10:50.364Z,18.77
2023-05-05T19:13:21.131Z,18.77
2023-05-05T19:15:51.918Z,18.77
2023-05-05T19:18:22.797Z,18.77
2023-05-05T19:20:53.718Z,18.78
2023-05-05T19:23:24.480Z,18.77
2023-05-05T19:26:03.654Z,18.77
2023-05-05T19:28:34.405Z,18.75
2023-05-05T19:31:05.149Z,18.74
2023-05-05T19:33:36.589Z,18.73
2023-05-05T19:36:11.196Z,18.73
2023-05-05T19:38:44.551Z,18.70
2023-05-05T19:41:15.486Z,18.68
2023-05-05T19:43:46.860Z,18.68
2023-05-05T19:46:18.175Z,18.65
2023-05-05T19:48:49.031Z,18.58
2023-05-05T19:51:19.844Z,18.56
2023-05-05T19:53:50.895Z,18.55
2023-05-05T19:56:21.753Z,18.53
2023-05-05T19:58:59.285Z,18.53
2023-05-05T20:01:30.506Z,18.52
2023-05-05T20:04:01.395Z,18.52
2023-05-05T20:06:32.340Z,18.51
2023-05-05T20:09:03.103Z,18.50
2023-05-05T20:11:33.902Z,18.48
2023-05-05T20:14:04.907Z,18.47
2023-05-05T20:16:35.702Z,18.47
2023-05-05T20:19:06.661Z,18.45
2023-05-05T20:21:37.505Z,18.44
2023-05-05T20:24:08.946Z,18.44
2023-05-05T20:26:39.728Z,18.44
2023-05-05T20:29:10.455Z,18.44
2023-05-05T20:31:41.187Z,18.42
2023-05-05T20:34:14.261Z,18.38
2023-05-05T20:36:45.034Z,18.33
2023-05-05T20:39:17.126Z,18.31
2023-05-05T20:41:47.793Z,18.28
2023-05-05T20:44:18.534Z,18.27
2023-05-05T20:46:49.371Z,18.24
2023-05-05T20:49:20.150Z,18.21
2023-05-05T20:51:51.048Z,18.17
2023-05-05T20:54:21.692Z,18.17
2023-05-05T20:56:53.257Z,18.17
2023-05-05T20:59:23.946Z,18.16
2023-05-05T21:01:54.810Z,18.14
2023-05-05T21:04:26.009Z,18.13
2023-05-05T21:06:57.510Z,18.11
2023-05-05T21:09:28.261Z,18.09
2023-05-05T21:11:58.880Z,18.09
2023-05-05T21:14:30.371Z,18.08
2023-05-05T21:17:01.260Z,18.05
2023-05-05T21:19:31.989Z,18.05
2023-05-05T21:22:02.912Z,18.02
2023-05-05T21:24:33.631Z,17.98
2023-05-05T21:27:04.516Z,17.94
2023-05-05T21:29:37.858Z,17.90
2023-05-05T21:32:09.118Z,17.87
2023-05-05T21:34:40.357Z,17.85
2023-05-05T21:37:12.151Z,17.82
2023-05-05T21:39:42.987Z,17.79
2023-05-05T21:42:13.684Z,17.74
2023-05-05T21:44:46.803Z,17.69
2023-05-05T21:47:17.594Z,17.67
2023-05-05T21:49:48.397Z,17.65
2023-05-05T21:52:19.483Z,17.61
2023-05-05T21:54:50.086Z,17.56
2023-05-05T21:57:20.933Z,17.49
2023-05-05T21:59:51.790Z,17.48
2023-05-05T22:09:43.830Z,17.47
2023-05-05T22:12:14.430Z,17.42
2023-05-05T22:14:45.148Z,17.41
2023-05-05T22:17:15.996Z,17.42
2023-05-05T22:19:46.768Z,17.43
2023-05-05T22:22:17.517Z,17.43
2023-05-05T22:24:48.329Z,17.41
2023-05-05T22:27:19.225Z,17.40
2023-05-05T22:29:50.140Z,17.40
2023-05-05T22:32:21.504Z,17.40
2023-05-05T22:34:52.333Z,17.40
2023-05-05T22:37:23.723Z,17.40
2023-05-05T22:39:54.498Z,17.39
2023-05-05T22:42:25.167Z,17.36
2023-05-05T22:44:55.803Z,17.33
2023-05-05T22:47:26.728Z,17.30
2023-05-05T22:49:58.039Z,17.25
2023-05-05T22:52:29.314Z,17.21
2023-05-05T22:55:00.105Z,17.15
2023-05-05T22:57:30.992Z,17.09
2023-05-05T23:00:01.669Z,17.08
2023-05-05T23:02:32.292Z,17.09
2023-05-05T23:05:03.374Z,17.10
2023-05-05T23:07:34.029Z,17.09
2023-05-05T23:10:05.229Z,17.05
2023-05-05T23:12:35.985Z,17.02
2023-05-05T23:15:08.242Z,17.00
2023-05-05T23:17:39.458Z,16.97
2023-05-05T23:20:13.321Z,16.94
2023-05-05T23:22:44.288Z,16.91
2023-05-05T23:25:15.174Z,16.90
2023-05-05T23:27:45.873Z,16.85
2023-05-05T23:30:16.973Z,16.80
2023-05-05T23:32:47.706Z,16.78
2023-05-05T23:35:18.470Z,16.72
2023-05-05T23:37:49.310Z,16.68
2023-05-05T23:40:20.196Z,16.66
2023-05-05T23:42:50.923Z,16.64
2023-05-05T23:45:21.591Z,16.63
2023-05-05T23:47:52.482Z,16.61
2023-05-05T23:50:23.406Z,16.59
2023-05-05T23:52:54.311Z,16.56
2023-05-05T23:55:25.380Z,16.53
2023-05-05T23:57:56.198Z,16.49
